sensor_id;sensor_type;location;lat;lon;timestamp;temperature;humidity
11538;DHT22;50159;49.426;11.182;2023-05-07T00:00:20;11.30;99.90
11538;DHT22;50159;49.426;11.182;2023-05-07T00:02:47;11.30;99.90
11538;DHT22;50159;49.426;11.182;2023-05-07T00:05:14;11.30;99.90
11538;DHT22;50159;49.426;11.182;2023-05-07T00:07:41;11.30;99.90
11538;DHT22;50159;49.426;11.182;2023-05-07T00:10:09;11.40;99.90
11538;DHT22;50159;49.426;11.182;2023-05-07T00:12:36;11.40;99.90
11538;DHT22;50159;49.426;11.182;2023-05-07T00:15:04;11.40;99.90
11538;DHT22;50159;49.426;11.182;2023-05-07T00:17:32;11.40;99.90
11538;DHT22;50159;49.426;11.182;2023-05-07T00:19:59;11.40;99.90
11538;DHT22;50159;49.426;11.182;2023-05-07T00:22:26;11.30;99.90
11538;DHT22;50159;49.426;11.182;2023-05-07T00:24:52;11.40;99.90
11538;DHT22;50159;49.426;11.182;2023-05-07T00:27:19;11.50;99.90
11538;DHT22;50159;49.426;11.182;2023-05-07T00:29:46;11.40;99.90
11538;DHT22;50159;49.426;11.182;2023-05-07T00:32:12;11.50;99.90
11538;DHT22;50159;49.426;11.182;2023-05-07T00:34:40;11.50;99.90
11538;DHT22;50159;49.426;11.182;2023-05-07T00:37:06;11.50;99.90
11538;DHT22;50159;49.426;11.182;2023-05-07T00:39:36;11.50;99.90
11538;DHT22;50159;49.426;11.182;2023-05-07T00:42:03;11.50;99.90
11538;DHT22;50159;49.426;11.182;2023-05-07T00:44:30;11.50;99.90
11538;DHT22;50159;49.426;11.182;2023-05-07T00:46:57;11.50;99.90
11538;DHT22;50159;49.426;11.182;2023-05-07T00:49:38;11.60;99.90
11538;DHT22;50159;49.426;11.182;2023-05-07T00:52:07;11.60;99.90
11538;DHT22;50159;49.426;11.182;2023-05-07T00:54:34;11.60;99.90
11538;DHT22;50159;49.426;11.182;2023-05-07T00:57:02;11.60;99.90
11538;DHT22;50159;49.426;11.182;2023-05-07T00:59:31;11.60;99.90
11538;DHT22;50159;49.426;11.182;2023-05-07T01:01:59;11.70;99.90
11538;DHT22;50159;49.426;11.182;2023-05-07T01:04:26;11.70;99.90
11538;DHT22;50159;49.426;11.182;2023-05-07T01:06:57;11.70;99.90
11538;DHT22;50159;49.426;11.182;2023-05-07T01:09:25;11.70;99.90
11538;DHT22;50159;49.426;11.182;2023-05-07T01:11:53;11.70;99.90
11538;DHT22;50159;49.426;11.182;2023-05-07T01:14:20;11.70;99.90
11538;DHT22;50159;49.426;11.182;2023-05-07T01:16:48;11.70;99.90
11538;DHT22;50159;49.426;11.182;2023-05-07T01:19:17;11.70;99.90
11538;DHT22;50159;49.426;11.182;2023-05-07T01:21:48;11.70;99.90
11538;DHT22;50159;49.426;11.182;2023-05-07T01:24:15;11.70;99.90
11538;DHT22;50159;49.426;11.182;2023-05-07T01:26:43;11.70;99.90
11538;DHT22;50159;49.426;11.182;2023-05-07T01:29:13;11.70;99.90
11538;DHT22;50159;49.426;11.182;2023-05-07T01:31:41;11.60;99.90
11538;DHT22;50159;49.426;11.182;2023-05-07T01:34:09;11.60;99.90
11538;DHT22;50159;49.426;11.182;2023-05-07T01:36:38;11.60;99.90
11538;DHT22;50159;49.426;11.182;2023-05-07T01:39:06;11.50;99.90
11538;DHT22;50159;49.426;11.182;2023-05-07T01:41:34;11.50;99.90
11538;DHT22;50159;49.426;11.182;2023-05-07T01:44:03;11.60;99.90
11538;DHT22;50159;49.426;11.182;2023-05-07T01:46:31;11.60;99.90
11538;DHT22;50159;49.426;11.182;2023-05-07T01:48:59;11.70;99.90
11538;DHT22;50159;49.426;11.182;2023-05-07T01:51:25;11.70;99.90
11538;DHT22;50159;49.426;11.182;2023-05-07T01:53:53;11.70;99.90
11538;DHT22;50159;49.426;11.182;2023-05-07T01:56:20;11.70;99.90
11538;DHT22;50159;49.426;11.182;2023-05-07T01:58:47;11.70;99.90
11538;DHT22;50159;49.426;11.182;2023-05-07T02:01:14;11.70;99.90
11538;DHT22;50159;49.426;11.182;2023-05-07T02:03:41;11.70;99.90
11538;DHT22;50159;49.426;11.182;2023-05-07T02:06:08;11.70;99.90
11538;DHT22;50159;49.426;11.182;2023-05-07T02:08:35;11.60;99.90
11538;DHT22;50159;49.426;11.182;2023-05-07T02:11:02;11.70;99.90
11538;DHT22;50159;49.426;11.182;2023-05-07T02:13:31;11.70;99.90
11538;DHT22;50159;49.426;11.182;2023-05-07T02:15:58;11.70;99.90
11538;DHT22;50159;49.426;11.182;2023-05-07T02:18:24;11.70;99.90
11538;DHT22;50159;49.426;11.182;2023-05-07T02:20:51;11.70;99.90
11538;DHT22;50159;49.426;11.182;2023-05-07T02:23:18;11.70;99.90
11538;DHT22;50159;49.426;11.182;2023-05-07T02:25:44;11.70;99.90
11538;DHT22;50159;49.426;11.182;2023-05-07T02:28:12;11.70;99.90
11538;DHT22;50159;49.426;11.182;2023-05-07T02:30:39;11.70;99.90
11538;DHT22;50159;49.426;11.182;2023-05-07T02:33:06;11.60;99.90
11538;DHT22;50159;49.426;11.182;2023-05-07T02:35:35;11.60;99.90
11538;DHT22;50159;49.426;11.182;2023-05-07T02:38:01;11.60;99.90
11538;DHT22;50159;49.426;11.182;2023-05-07T02:40:28;11.60;99.90
11538;DHT22;50159;49.426;11.182;2023-05-07T02:42:55;11.50;99.90
11538;DHT22;50159;49.426;11.182;2023-05-07T02:45:21;11.50;99.90
11538;DHT22;50159;49.426;11.182;2023-05-07T02:47:48;11.40;99.90
11538;DHT22;50159;49.426;11.182;2023-05-07T02:50:15;11.40;99.90
11538;DHT22;50159;49.426;11.182;2023-05-07T02:52:41;11.30;99.90
11538;DHT22;50159;49.426;11.182;2023-05-07T02:55:08;11.30;99.90
11538;DHT22;50159;49.426;11.182;2023-05-07T02:57:35;11.20;99.90
11538;DHT22;50159;49.426;11.182;2023-05-07T03:00:14;11.20;99.90
11538;DHT22;50159;49.426;11.182;2023-05-07T03:02:41;11.10;99.90
11538;DHT22;50159;49.426;11.182;2023-05-07T03:05:08;11.10;99.90
11538;DHT22;50159;49.426;11.182;2023-05-07T03:07:35;11.10;99.90
11538;DHT22;50159;49.426;11.182;2023-05-07T03:10:03;11.00;99.90
11538;DHT22;50159;49.426;11.182;2023-05-07T03:12:30;11.00;99.90
11538;DHT22;50159;49.426;11.182;2023-05-07T03:14:57;10.90;99.90
11538;DHT22;50159;49.426;11.182;2023-05-07T03:17:24;10.90;99.90
11538;DHT22;50159;49.426;11.182;2023-05-07T03:19:51;10.90;99.90
11538;DHT22;50159;49.426;11.182;2023-05-07T03:22:17;10.80;99.90
11538;DHT22;50159;49.426;11.182;2023-05-07T03:24:44;10.80;99.90
11538;DHT22;50159;49.426;11.182;2023-05-07T03:27:11;10.80;99.90
11538;DHT22;50159;49.426;11.182;2023-05-07T03:29:37;10.80;99.90
11538;DHT22;50159;49.426;11.182;2023-05-07T03:32:04;10.80;99.90
11538;DHT22;50159;49.426;11.182;2023-05-07T03:34:32;10.70;99.90
11538;DHT22;50159;49.426;11.182;2023-05-07T03:36:59;10.70;99.90
11538;DHT22;50159;49.426;11.182;2023-05-07T03:39:25;10.60;99.90
11538;DHT22;50159;49.426;11.182;2023-05-07T03:41:52;10.60;99.90
11538;DHT22;50159;49.426;11.182;2023-05-07T03:44:19;10.60;99.90
11538;DHT22;50159;49.426;11.182;2023-05-07T03:46:46;10.50;99.90
11538;DHT22;50159;49.426;11.182;2023-05-07T03:49:13;10.50;99.90
11538;DHT22;50159;49.426;11.182;2023-05-07T03:51:39;10.50;99.90
11538;DHT22;50159;49.426;11.182;2023-05-07T03:54:06;10.40;99.90
11538;DHT22;50159;49.426;11.182;2023-05-07T03:56:33;10.40;99.90
11538;DHT22;50159;49.426;11.182;2023-05-07T03:59:00;10.50;99.90
11538;DHT22;50159;49.426;11.182;2023-05-07T04:01:27;10.50;99.90
11538;DHT22;50159;49.426;11.182;2023-05-07T04:03:54;10.40;99.90
11538;DHT22;50159;49.426;11.182;2023-05-07T04:06:21;10.40;99.90
11538;DHT22;50159;49.426;11.182;2023-05-07T04:08:48;10.40;99.90
11538;DHT22;50159;49.426;11.182;2023-05-07T04:11:15;10.40;99.90
11538;DHT22;50159;49.426;11.182;2023-05-07T04:13:42;10.40;99.90
11538;DHT22;50159;49.426;11.182;2023-05-07T04:16:08;10.40;99.90
11538;DHT22;50159;49.426;11.182;2023-05-07T04:18:35;10.40;99.90
11538;DHT22;50159;49.426;11.182;2023-05-07T04:21:02;10.30;99.90
11538;DHT22;50159;49.426;11.182;2023-05-07T04:23:28;10.30;99.90
11538;DHT22;50159;49.426;11.182;2023-05-07T04:25:55;10.20;99.90
11538;DHT22;50159;49.426;11.182;2023-05-07T04:28:22;10.30;99.90
11538;DHT22;50159;49.426;11.182;2023-05-07T04:30:49;10.30;99.90
11538;DHT22;50159;49.426;11.182;2023-05-07T04:33:16;10.40;99.90
11538;DHT22;50159;49.426;11.182;2023-05-07T04:35:43;10.40;99.90
11538;DHT22;50159;49.426;11.182;2023-05-07T04:38:10;10.50;99.90
11538;DHT22;50159;49.426;11.182;2023-05-07T04:40:37;10.50;99.90
11538;DHT22;50159;49.426;11.182;2023-05-07T04:43:05;10.50;99.90
11538;DHT22;50159;49.426;11.182;2023-05-07T04:45:32;10.60;99.90
11538;DHT22;50159;49.426;11.182;2023-05-07T04:47:58;10.60;99.90
11538;DHT22;50159;49.426;11.182;2023-05-07T04:50:25;10.70;99.90
11538;DHT22;50159;49.426;11.182;2023-05-07T04:52:52;10.80;99.90
11538;DHT22;50159;49.426;11.182;2023-05-07T04:55:19;10.80;99.90
11538;DHT22;50159;49.426;11.182;2023-05-07T04:57:45;10.90;99.90
11538;DHT22;50159;49.426;11.182;2023-05-07T05:00:12;11.00;99.90
11538;DHT22;50159;49.426;11.182;2023-05-07T05:02:43;11.00;99.90
11538;DHT22;50159;49.426;11.182;2023-05-07T05:05:10;11.10;99.90
11538;DHT22;50159;49.426;11.182;2023-05-07T05:07:36;11.20;99.90
11538;DHT22;50159;49.426;11.182;2023-05-07T05:10:05;11.30;99.90
11538;DHT22;50159;49.426;11.182;2023-05-07T05:12:32;11.40;99.90
11538;DHT22;50159;49.426;11.182;2023-05-07T05:14:58;11.50;99.90
11538;DHT22;50159;49.426;11.182;2023-05-07T05:17:25;11.60;99.90
11538;DHT22;50159;49.426;11.182;2023-05-07T05:19:52;11.70;99.90
11538;DHT22;50159;49.426;11.182;2023-05-07T05:22:18;11.80;99.90
11538;DHT22;50159;49.426;11.182;2023-05-07T05:24:45;11.90;99.90
11538;DHT22;50159;49.426;11.182;2023-05-07T05:27:11;12.00;99.90
11538;DHT22;50159;49.426;11.182;2023-05-07T05:29:38;12.10;99.90
11538;DHT22;50159;49.426;11.182;2023-05-07T05:32:05;12.30;99.90
11538;DHT22;50159;49.426;11.182;2023-05-07T05:34:31;12.50;99.90
11538;DHT22;50159;49.426;11.182;2023-05-07T05:36:59;12.70;99.90
11538;DHT22;50159;49.426;11.182;2023-05-07T05:39:26;12.90;99.90
11538;DHT22;50159;49.426;11.182;2023-05-07T05:41:52;13.00;99.90
11538;DHT22;50159;49.426;11.182;2023-05-07T05:44:19;13.20;99.90
11538;DHT22;50159;49.426;11.182;2023-05-07T05:46:46;13.30;99.90
11538;DHT22;50159;49.426;11.182;2023-05-07T05:49:13;13.40;99.90
11538;DHT22;50159;49.426;11.182;2023-05-07T05:51:39;13.50;99.90
11538;DHT22;50159;49.426;11.182;2023-05-07T05:54:06;13.50;99.90
11538;DHT22;50159;49.426;11.182;2023-05-07T05:56:33;13.60;99.90
11538;DHT22;50159;49.426;11.182;2023-05-07T05:59:00;13.60;99.90
11538;DHT22;50159;49.426;11.182;2023-05-07T06:01:26;13.60;99.90
11538;DHT22;50159;49.426;11.182;2023-05-07T06:03:53;13.70;99.90
11538;DHT22;50159;49.426;11.182;2023-05-07T06:06:20;13.80;99.90
11538;DHT22;50159;49.426;11.182;2023-05-07T06:08:46;13.80;99.90
11538;DHT22;50159;49.426;11.182;2023-05-07T06:11:13;13.90;99.90
11538;DHT22;50159;49.426;11.182;2023-05-07T06:13:40;13.90;99.90
11538;DHT22;50159;49.426;11.182;2023-05-07T06:16:07;14.00;99.90
11538;DHT22;50159;49.426;11.182;2023-05-07T06:18:33;14.10;99.90
11538;DHT22;50159;49.426;11.182;2023-05-07T06:21:02;14.20;99.90
11538;DHT22;50159;49.426;11.182;2023-05-07T06:23:29;14.20;99.90
11538;DHT22;50159;49.426;11.182;2023-05-07T06:25:55;14.30;99.90
11538;DHT22;50159;49.426;11.182;2023-05-07T06:28:22;14.30;99.90
11538;DHT22;50159;49.426;11.182;2023-05-07T06:30:49;14.40;99.90
11538;DHT22;50159;49.426;11.182;2023-05-07T06:33:16;14.40;99.90
11538;DHT22;50159;49.426;11.182;2023-05-07T06:35:43;14.50;99.90
11538;DHT22;50159;49.426;11.182;2023-05-07T06:38:09;14.60;99.90
11538;DHT22;50159;49.426;11.182;2023-05-07T06:40:37;14.60;99.90
11538;DHT22;50159;49.426;11.182;2023-05-07T06:43:03;14.70;99.90
11538;DHT22;50159;49.426;11.182;2023-05-07T06:45:30;14.80;99.90
11538;DHT22;50159;49.426;11.182;2023-05-07T06:47:56;14.80;99.90
11538;DHT22;50159;49.426;11.182;2023-05-07T06:50:23;14.90;99.90
11538;DHT22;50159;49.426;11.182;2023-05-07T06:52:50;15.00;99.90
11538;DHT22;50159;49.426;11.182;2023-05-07T06:55:16;15.10;99.90
11538;DHT22;50159;49.426;11.182;2023-05-07T06:57:43;15.20;99.90
11538;DHT22;50159;49.426;11.182;2023-05-07T07:00:10;15.30;99.90
11538;DHT22;50159;49.426;11.182;2023-05-07T07:02:37;15.40;99.90
11538;DHT22;50159;49.426;11.182;2023-05-07T07:05:04;15.40;99.90
11538;DHT22;50159;49.426;11.182;2023-05-07T07:07:31;15.50;99.90
11538;DHT22;50159;49.426;11.182;2023-05-07T07:09:58;15.60;99.90
11538;DHT22;50159;49.426;11.182;2023-05-07T07:12:24;15.70;99.90
11538;DHT22;50159;49.426;11.182;2023-05-07T07:14:52;15.90;99.90
11538;DHT22;50159;49.426;11.182;2023-05-07T07:17:20;16.20;99.90
11538;DHT22;50159;49.426;11.182;2023-05-07T07:19:47;16.60;99.90
11538;DHT22;50159;49.426;11.182;2023-05-07T07:22:14;16.90;99.90
11538;DHT22;50159;49.426;11.182;2023-05-07T07:24:40;17.00;99.90
11538;DHT22;50159;49.426;11.182;2023-05-07T07:27:07;17.10;99.90
11538;DHT22;50159;49.426;11.182;2023-05-07T07:29:34;17.00;99.90
11538;DHT22;50159;49.426;11.182;2023-05-07T07:32:01;17.00;99.90
11538;DHT22;50159;49.426;11.182;2023-05-07T07:34:27;16.90;99.90
11538;DHT22;50159;49.426;11.182;2023-05-07T07:36:54;16.90;99.90
11538;DHT22;50159;49.426;11.182;2023-05-07T07:39:21;16.90;99.90
11538;DHT22;50159;49.426;11.182;2023-05-07T07:41:47;17.10;99.90
11538;DHT22;50159;49.426;11.182;2023-05-07T07:44:14;17.20;99.90
11538;DHT22;50159;49.426;11.182;2023-05-07T07:46:42;17.40;99.90
11538;DHT22;50159;49.426;11.182;2023-05-07T07:49:09;17.60;99.90
11538;DHT22;50159;49.426;11.182;2023-05-07T07:51:35;17.70;99.90
11538;DHT22;50159;49.426;11.182;2023-05-07T07:54:02;17.90;99.90
11538;DHT22;50159;49.426;11.182;2023-05-07T07:56:29;17.90;99.30
11538;DHT22;50159;49.426;11.182;2023-05-07T07:58:56;18.00;99.00
11538;DHT22;50159;49.426;11.182;2023-05-07T08:01:23;18.00;98.60
11538;DHT22;50159;49.426;11.182;2023-05-07T08:03:49;17.90;97.70
11538;DHT22;50159;49.426;11.182;2023-05-07T08:06:16;18.00;98.30
11538;DHT22;50159;49.426;11.182;2023-05-07T08:08:43;18.00;97.90
11538;DHT22;50159;49.426;11.182;2023-05-07T08:11:10;18.10;98.80
11538;DHT22;50159;49.426;11.182;2023-05-07T08:13:38;18.20;97.70
11538;DHT22;50159;49.426;11.182;2023-05-07T08:16:05;18.10;96.00
11538;DHT22;50159;49.426;11.182;2023-05-07T08:18:31;18.20;97.10
11538;DHT22;50159;49.426;11.182;2023-05-07T08:20:58;18.20;96.30
11538;DHT22;50159;49.426;11.182;2023-05-07T08:23:25;18.20;95.80
11538;DHT22;50159;49.426;11.182;2023-05-07T08:25:52;18.20;94.80
11538;DHT22;50159;49.426;11.182;2023-05-07T08:28:19;18.20;94.60
11538;DHT22;50159;49.426;11.182;2023-05-07T08:30:47;18.20;94.50
11538;DHT22;50159;49.426;11.182;2023-05-07T08:33:14;18.30;94.50
11538;DHT22;50159;49.426;11.182;2023-05-07T08:35:41;18.40;95.40
11538;DHT22;50159;49.426;11.182;2023-05-07T08:38:07;18.40;94.80
11538;DHT22;50159;49.426;11.182;2023-05-07T08:40:37;18.60;94.20
11538;DHT22;50159;49.426;11.182;2023-05-07T08:43:07;18.70;93.10
11538;DHT22;50159;49.426;11.182;2023-05-07T08:45:35;18.80;93.00
11538;DHT22;50159;49.426;11.182;2023-05-07T08:48:03;18.90;92.50
11538;DHT22;50159;49.426;11.182;2023-05-07T08:50:32;19.10;91.80
11538;DHT22;50159;49.426;11.182;2023-05-07T08:53:03;19.40;89.90
11538;DHT22;50159;49.426;11.182;2023-05-07T08:55:30;19.60;87.60
11538;DHT22;50159;49.426;11.182;2023-05-07T08:57:57;19.70;87.20
11538;DHT22;50159;49.426;11.182;2023-05-07T09:00:23;19.70;86.20
11538;DHT22;50159;49.426;11.182;2023-05-07T09:02:50;19.80;85.10
11538;DHT22;50159;49.426;11.182;2023-05-07T09:05:17;19.90;83.50
11538;DHT22;50159;49.426;11.182;2023-05-07T09:07:44;20.00;84.30
11538;DHT22;50159;49.426;11.182;2023-05-07T09:10:11;20.20;81.50
11538;DHT22;50159;49.426;11.182;2023-05-07T09:12:40;20.30;80.60
11538;DHT22;50159;49.426;11.182;2023-05-07T09:15:07;20.50;81.00
11538;DHT22;50159;49.426;11.182;2023-05-07T09:17:34;20.70;79.40
11538;DHT22;50159;49.426;11.182;2023-05-07T09:20:05;20.80;77.90
11538;DHT22;50159;49.426;11.182;2023-05-07T09:22:37;20.80;76.60
11538;DHT22;50159;49.426;11.182;2023-05-07T09:25:05;20.60;75.60
11538;DHT22;50159;49.426;11.182;2023-05-07T09:27:32;20.60;77.00
11538;DHT22;50159;49.426;11.182;2023-05-07T09:29:59;20.70;76.20
11538;DHT22;50159;49.426;11.182;2023-05-07T09:32:29;20.80;74.80
11538;DHT22;50159;49.426;11.182;2023-05-07T09:34:57;21.10;74.60
11538;DHT22;50159;49.426;11.182;2023-05-07T09:37:25;21.40;74.60
11538;DHT22;50159;49.426;11.182;2023-05-07T09:39:52;21.70;73.10
11538;DHT22;50159;49.426;11.182;2023-05-07T09:42:23;21.80;72.00
11538;DHT22;50159;49.426;11.182;2023-05-07T09:44:51;21.70;71.80
11538;DHT22;50159;49.426;11.182;2023-05-07T09:47:23;21.90;72.70
11538;DHT22;50159;49.426;11.182;2023-05-07T09:49:55;22.10;68.90
11538;DHT22;50159;49.426;11.182;2023-05-07T09:52:23;22.40;67.00
11538;DHT22;50159;49.426;11.182;2023-05-07T09:54:50;22.50;66.00
11538;DHT22;50159;49.426;11.182;2023-05-07T09:57:19;22.50;65.40
11538;DHT22;50159;49.426;11.182;2023-05-07T09:59:47;22.50;63.40
11538;DHT22;50159;49.426;11.182;2023-05-07T10:02:14;22.60;62.80
11538;DHT22;50159;49.426;11.182;2023-05-07T10:04:42;22.70;63.20
11538;DHT22;50159;49.426;11.182;2023-05-07T10:07:09;22.70;62.80
11538;DHT22;50159;49.426;11.182;2023-05-07T10:09:36;22.90;63.30
11538;DHT22;50159;49.426;11.182;2023-05-07T10:12:06;22.70;63.00
11538;DHT22;50159;49.426;11.182;2023-05-07T10:14:33;22.40;62.40
11538;DHT22;50159;49.426;11.182;2023-05-07T10:17:00;22.10;63.30
11538;DHT22;50159;49.426;11.182;2023-05-07T10:19:29;21.90;64.30
11538;DHT22;50159;49.426;11.182;2023-05-07T10:21:59;21.60;64.40
11538;DHT22;50159;49.426;11.182;2023-05-07T10:24:35;21.50;65.20
11538;DHT22;50159;49.426;11.182;2023-05-07T10:27:10;21.40;65.00
11538;DHT22;50159;49.426;11.182;2023-05-07T10:30:01;21.40;65.90
11538;DHT22;50159;49.426;11.182;2023-05-07T10:32:49;21.40;65.60
11538;DHT22;50159;49.426;11.182;2023-05-07T10:35:26;21.40;65.60
11538;DHT22;50159;49.426;11.182;2023-05-07T10:37:53;21.40;65.60
11538;DHT22;50159;49.426;11.182;2023-05-07T10:40:20;21.60;65.70
11538;DHT22;50159;49.426;11.182;2023-05-07T10:42:55;22.00;65.50
11538;DHT22;50159;49.426;11.182;2023-05-07T10:45:22;22.30;65.00
11538;DHT22;50159;49.426;11.182;2023-05-07T10:48:14;22.40;62.50
11538;DHT22;50159;49.426;11.182;2023-05-07T10:50:45;22.30;62.20
11538;DHT22;50159;49.426;11.182;2023-05-07T10:55:48;22.10;62.50
11538;DHT22;50159;49.426;11.182;2023-05-07T11:00:59;22.10;63.20
11538;DHT22;50159;49.426;11.182;2023-05-07T11:03:27;22.30;66.00
11538;DHT22;50159;49.426;11.182;2023-05-07T11:06:11;22.50;65.70
11538;DHT22;50159;49.426;11.182;2023-05-07T11:08:56;22.50;63.80
11538;DHT22;50159;49.426;11.182;2023-05-07T11:11:46;22.30;64.10
11538;DHT22;50159;49.426;11.182;2023-05-07T11:14:17;22.00;64.90
11538;DHT22;50159;49.426;11.182;2023-05-07T11:17:02;21.80;65.00
11538;DHT22;50159;49.426;11.182;2023-05-07T11:19:52;21.60;66.00
11538;DHT22;50159;49.426;11.182;2023-05-07T11:22:39;21.40;66.60
11538;DHT22;50159;49.426;11.182;2023-05-07T11:25:07;21.30;67.10
11538;DHT22;50159;49.426;11.182;2023-05-07T11:27:34;21.40;67.70
11538;DHT22;50159;49.426;11.182;2023-05-07T11:30:00;21.40;67.00
11538;DHT22;50159;49.426;11.182;2023-05-07T11:32:29;21.60;68.20
11538;DHT22;50159;49.426;11.182;2023-05-07T11:34:58;21.90;67.50
11538;DHT22;50159;49.426;11.182;2023-05-07T11:37:27;22.40;65.50
11538;DHT22;50159;49.426;11.182;2023-05-07T11:40:05;22.90;65.20
11538;DHT22;50159;49.426;11.182;2023-05-07T11:42:34;23.40;63.70
11538;DHT22;50159;49.426;11.182;2023-05-07T11:45:02;23.70;60.80
11538;DHT22;50159;49.426;11.182;2023-05-07T11:47:32;24.00;60.80
11538;DHT22;50159;49.426;11.182;2023-05-07T11:50:05;24.30;58.90
11538;DHT22;50159;49.426;11.182;2023-05-07T11:52:32;24.60;59.20
11538;DHT22;50159;49.426;11.182;2023-05-07T11:55:00;24.90;57.30
11538;DHT22;50159;49.426;11.182;2023-05-07T11:57:27;25.20;56.40
11538;DHT22;50159;49.426;11.182;2023-05-07T11:59:55;24.90;55.60
11538;DHT22;50159;49.426;11.182;2023-05-07T12:02:22;24.70;55.30
11538;DHT22;50159;49.426;11.182;2023-05-07T12:04:52;24.60;55.40
11538;DHT22;50159;49.426;11.182;2023-05-07T12:07:19;24.30;55.20
11538;DHT22;50159;49.426;11.182;2023-05-07T12:09:46;24.20;55.30
11538;DHT22;50159;49.426;11.182;2023-05-07T12:12:13;24.40;54.90
11538;DHT22;50159;49.426;11.182;2023-05-07T12:14:45;24.50;54.50
11538;DHT22;50159;49.426;11.182;2023-05-07T12:17:13;24.50;54.60
11538;DHT22;50159;49.426;11.182;2023-05-07T12:19:42;24.50;54.30
11538;DHT22;50159;49.426;11.182;2023-05-07T12:22:10;24.60;54.10
11538;DHT22;50159;49.426;11.182;2023-05-07T12:24:47;24.70;54.20
11538;DHT22;50159;49.426;11.182;2023-05-07T12:27:15;24.80;53.50
11538;DHT22;50159;49.426;11.182;2023-05-07T12:29:46;24.80;52.50
11538;DHT22;50159;49.426;11.182;2023-05-07T12:32:17;24.80;54.20
11538;DHT22;50159;49.426;11.182;2023-05-07T12:34:45;24.80;54.40
11538;DHT22;50159;49.426;11.182;2023-05-07T12:37:12;24.90;53.80
11538;DHT22;50159;49.426;11.182;2023-05-07T12:39:49;25.10;53.80
11538;DHT22;50159;49.426;11.182;2023-05-07T12:42:20;25.50;53.40
11538;DHT22;50159;49.426;11.182;2023-05-07T12:44:51;25.80;52.70
11538;DHT22;50159;49.426;11.182;2023-05-07T12:47:18;25.90;48.70
11538;DHT22;50159;49.426;11.182;2023-05-07T12:49:45;25.80;49.90
11538;DHT22;50159;49.426;11.182;2023-05-07T12:52:12;25.90;51.10
11538;DHT22;50159;49.426;11.182;2023-05-07T12:54:39;26.10;49.80
11538;DHT22;50159;49.426;11.182;2023-05-07T12:57:09;25.90;50.20
11538;DHT22;50159;49.426;11.182;2023-05-07T12:59:39;26.10;49.50
11538;DHT22;50159;49.426;11.182;2023-05-07T13:02:07;26.30;49.10
11538;DHT22;50159;49.426;11.182;2023-05-07T13:04:34;26.00;47.10
11538;DHT22;50159;49.426;11.182;2023-05-07T13:07:01;25.60;48.20
11538;DHT22;50159;49.426;11.182;2023-05-07T13:09:29;25.50;49.00
11538;DHT22;50159;49.426;11.182;2023-05-07T13:11:55;25.60;50.40
11538;DHT22;50159;49.426;11.182;2023-05-07T13:14:22;25.70;49.90
11538;DHT22;50159;49.426;11.182;2023-05-07T13:16:49;25.80;48.90
11538;DHT22;50159;49.426;11.182;2023-05-07T13:19:16;26.00;49.40
11538;DHT22;50159;49.426;11.182;2023-05-07T13:21:43;26.40;49.10
11538;DHT22;50159;49.426;11.182;2023-05-07T13:24:10;26.70;46.30
11538;DHT22;50159;49.426;11.182;2023-05-07T13:26:37;26.80;46.20
11538;DHT22;50159;49.426;11.182;2023-05-07T13:29:03;26.90;46.80
11538;DHT22;50159;49.426;11.182;2023-05-07T13:31:30;26.80;44.40
11538;DHT22;50159;49.426;11.182;2023-05-07T13:33:57;26.50;45.30
11538;DHT22;50159;49.426;11.182;2023-05-07T13:36:23;26.30;46.30
11538;DHT22;50159;49.426;11.182;2023-05-07T13:38:50;26.10;47.00
11538;DHT22;50159;49.426;11.182;2023-05-07T13:41:18;25.60;47.40
11538;DHT22;50159;49.426;11.182;2023-05-07T13:43:44;25.30;48.50
11538;DHT22;50159;49.426;11.182;2023-05-07T13:46:11;25.00;49.10
11538;DHT22;50159;49.426;11.182;2023-05-07T13:48:38;24.60;49.00
11538;DHT22;50159;49.426;11.182;2023-05-07T13:51:05;24.30;49.70
11538;DHT22;50159;49.426;11.182;2023-05-07T13:53:31;24.20;50.80
11538;DHT22;50159;49.426;11.182;2023-05-07T13:55:58;24.00;51.10
11538;DHT22;50159;49.426;11.182;2023-05-07T13:58:25;23.90;51.50
11538;DHT22;50159;49.426;11.182;2023-05-07T14:00:51;23.80;51.30
11538;DHT22;50159;49.426;11.182;2023-05-07T14:03:18;23.80;51.60
11538;DHT22;50159;49.426;11.182;2023-05-07T14:05:46;23.70;52.20
11538;DHT22;50159;49.426;11.182;2023-05-07T14:08:15;23.70;53.10
11538;DHT22;50159;49.426;11.182;2023-05-07T14:10:45;23.90;53.50
11538;DHT22;50159;49.426;11.182;2023-05-07T14:13:12;24.60;53.20
11538;DHT22;50159;49.426;11.182;2023-05-07T14:15:39;25.40;51.60
11538;DHT22;50159;49.426;11.182;2023-05-07T14:18:06;26.20;48.60
11538;DHT22;50159;49.426;11.182;2023-05-07T14:20:33;26.90;47.90
11538;DHT22;50159;49.426;11.182;2023-05-07T14:23:03;27.50;45.10
11538;DHT22;50159;49.426;11.182;2023-05-07T14:25:29;27.30;45.20
11538;DHT22;50159;49.426;11.182;2023-05-07T14:27:56;26.80;45.60
11538;DHT22;50159;49.426;11.182;2023-05-07T14:30:23;26.20;46.30
11538;DHT22;50159;49.426;11.182;2023-05-07T14:32:50;25.90;47.60
11538;DHT22;50159;49.426;11.182;2023-05-07T14:35:17;26.60;47.00
11538;DHT22;50159;49.426;11.182;2023-05-07T14:37:44;27.40;44.40
11538;DHT22;50159;49.426;11.182;2023-05-07T14:40:11;28.20;44.20
11538;DHT22;50159;49.426;11.182;2023-05-07T14:42:38;29.30;41.90
11538;DHT22;50159;49.426;11.182;2023-05-07T14:45:05;30.30;40.20
11538;DHT22;50159;49.426;11.182;2023-05-07T14:47:32;30.70;37.90
11538;DHT22;50159;49.426;11.182;2023-05-07T14:49:58;31.00;37.90
11538;DHT22;50159;49.426;11.182;2023-05-07T14:52:27;31.00;37.20
11538;DHT22;50159;49.426;11.182;2023-05-07T14:54:54;30.80;37.80
11538;DHT22;50159;49.426;11.182;2023-05-07T14:57:21;30.00;38.10
11538;DHT22;50159;49.426;11.182;2023-05-07T14:59:48;28.80;39.10
11538;DHT22;50159;49.426;11.182;2023-05-07T15:02:14;27.70;42.50
11538;DHT22;50159;49.426;11.182;2023-05-07T15:04:42;26.90;44.80
11538;DHT22;50159;49.426;11.182;2023-05-07T15:07:13;26.30;45.10
11538;DHT22;50159;49.426;11.182;2023-05-07T15:09:44;25.80;45.70
11538;DHT22;50159;49.426;11.182;2023-05-07T15:12:11;25.30;47.20
11538;DHT22;50159;49.426;11.182;2023-05-07T15:14:39;24.70;48.00
11538;DHT22;50159;49.426;11.182;2023-05-07T15:17:05;24.20;49.30
11538;DHT22;50159;49.426;11.182;2023-05-07T15:19:33;23.80;50.40
11538;DHT22;50159;49.426;11.182;2023-05-07T15:22:00;23.50;51.80
11538;DHT22;50159;49.426;11.182;2023-05-07T15:24:30;23.20;52.60